Time;durP1;ratioP1;P1;durP2;ratioP2;P2;SDS_P1;SDS_P2;PMS_P1;PMS_P2;Temp;Humidity;BMP_temperature;BMP_pressure;BME280_temperature;BME280_humidity;BME280_pressure;Samples;Min_cycle;Max_cycle;Signal;HPM_P1;HPM_P2
2023/12/17 00:01:21;;;;;;;11.18;5.72;;;;;;;;;;4661666;30;20061;-90
2023/12/17 00:03:47;;;;;;;12.35;6.65;;;;;;;;;;4647614;30;20050;-91
2023/12/17 00:06:13;;;;;;;11.65;5.35;;;;;;;;;;4659028;30;20057;-92
2023/12/17 00:08:39;;;;;;;9.35;5.78;;;;;;;;;;4660305;30;20076;-91
2023/12/17 00:11:05;;;;;;;8.82;5.70;;;;;;;;;;4665929;30;20039;-92
2023/12/17 00:13:31;;;;;;;7.45;4.90;;;;;;;;;;4667943;30;20050;-91
2023/12/17 00:15:57;;;;;;;12.82;5.32;;;;;;;;;;4651423;30;20093;-91
2023/12/17 00:18:23;;;;;;;12.77;5.90;;;;;;;;;;4655592;30;20086;-91
2023/12/17 00:20:49;;;;;;;6.55;4.43;;;;;;;;;;4633025;30;20187;-92
2023/12/17 00:23:15;;;;;;;9.10;4.80;;;;;;;;;;4651850;30;20109;-91
2023/12/17 00:25:41;;;;;;;10.45;5.10;;;;;;;;;;4653415;30;20077;-90
2023/12/17 00:28:07;;;;;;;11.40;5.25;;;;;;;;;;4657745;30;20057;-93
2023/12/17 00:30:33;;;;;;;7.15;5.30;;;;;;;;;;4647163;30;20045;-92
2023/12/17 00:33:00;;;;;;;14.57;5.22;;;;;;;;;;4651901;30;20058;-91
2023/12/17 00:35:26;;;;;;;11.48;5.15;;;;;;;;;;4632048;30;20057;-92
2023/12/17 00:37:52;;;;;;;9.90;4.93;;;;;;;;;;4650825;30;20050;-92
2023/12/17 00:40:18;;;;;;;9.38;4.75;;;;;;;;;;4651012;30;20045;-92
2023/12/17 00:42:44;;;;;;;8.60;4.95;;;;;;;;;;4650245;30;20197;-92
2023/12/17 00:45:10;;;;;;;8.13;4.63;;;;;;;;;;4666617;30;21316;-92
2023/12/17 00:47:36;;;;;;;6.70;4.38;;;;;;;;;;4638330;30;20515;-91
2023/12/17 00:50:02;;;;;;;8.50;4.75;;;;;;;;;;4651928;30;20077;-91
2023/12/17 00:52:28;;;;;;;7.20;4.70;;;;;;;;;;4676560;30;20061;-91
2023/12/17 00:54:55;;;;;;;6.10;4.13;;;;;;;;;;4645775;30;20424;-91
2023/12/17 00:57:21;;;;;;;9.68;4.40;;;;;;;;;;4667780;30;20054;-92
2023/12/17 00:59:47;;;;;;;8.18;4.47;;;;;;;;;;4664160;30;20042;-91
2023/12/17 01:02:13;;;;;;;9.00;4.43;;;;;;;;;;4659459;30;20421;-91
2023/12/17 01:04:39;;;;;;;7.13;4.50;;;;;;;;;;4663979;30;20400;-91
2023/12/17 01:07:05;;;;;;;6.90;4.20;;;;;;;;;;4650676;30;20046;-91
2023/12/17 01:09:31;;;;;;;8.13;4.15;;;;;;;;;;4641372;30;20408;-91
2023/12/17 01:11:59;;;;;;;8.77;4.50;;;;;;;;;;4645567;30;20053;-91
2023/12/17 01:14:25;;;;;;;9.40;4.75;;;;;;;;;;4656452;30;20519;-91
2023/12/17 01:16:53;;;;;;;6.65;4.32;;;;;;;;;;4651081;30;20132;-91
2023/12/17 01:19:19;;;;;;;;;;;;;;;;;;4665011;30;20062;-91
2023/12/17 01:21:45;;;;;;;9.55;3.92;;;;;;;;;;4654853;30;19931;-91
2023/12/17 01:24:11;;;;;;;13.25;4.75;;;;;;;;;;4653874;30;20084;-92
2023/12/17 01:26:38;;;;;;;8.35;4.25;;;;;;;;;;4655904;30;20076;-91
2023/12/17 01:29:04;;;;;;;6.57;4.25;;;;;;;;;;4645017;30;20070;-91
2023/12/17 01:31:30;;;;;;;9.48;4.00;;;;;;;;;;4664811;30;20054;-91
2023/12/17 01:33:56;;;;;;;6.00;4.22;;;;;;;;;;4652690;30;20052;-92
2023/12/17 01:36:22;;;;;;;8.20;4.28;;;;;;;;;;4669106;30;20501;-91
2023/12/17 01:38:51;;;;;;;8.50;4.40;;;;;;;;;;4666586;30;20404;-91
2023/12/17 01:41:17;;;;;;;8.13;4.30;;;;;;;;;;4649451;30;20129;-91
2023/12/17 01:43:44;;;;;;;8.30;4.40;;;;;;;;;;4635674;30;20045;-91
2023/12/17 01:46:13;;;;;;;7.28;3.63;;;;;;;;;;4651004;30;20053;-92
2023/12/17 01:48:39;;;;;;;8.50;4.57;;;;;;;;;;4650683;30;20488;-92
2023/12/17 01:51:05;;;;;;;7.63;4.75;;;;;;;;;;4647986;30;20056;-91
2023/12/17 01:53:31;;;;;;;8.20;4.47;;;;;;;;;;4651541;30;20511;-92
2023/12/17 01:55:57;;;;;;;9.50;4.70;;;;;;;;;;4650779;30;20053;-91
2023/12/17 01:58:23;;;;;;;6.10;4.50;;;;;;;;;;4634222;30;20112;-91
2023/12/17 02:00:49;;;;;;;9.95;4.70;;;;;;;;;;4637900;30;20060;-91
2023/12/17 02:03:15;;;;;;;7.22;4.68;;;;;;;;;;4648145;30;20057;-92
2023/12/17 02:05:45;;;;;;;11.27;4.30;;;;;;;;;;4652646;30;20391;-92
2023/12/17 02:08:11;;;;;;;12.32;4.38;;;;;;;;;;4636909;30;20860;-91
2023/12/17 02:10:37;;;;;;;9.20;4.32;;;;;;;;;;4645929;30;20080;-91
2023/12/17 02:13:03;;;;;;;8.82;5.03;;;;;;;;;;4641115;30;20068;-91
2023/12/17 02:15:29;;;;;;;10.60;5.03;;;;;;;;;;4669713;30;20784;-91
2023/12/17 02:17:55;;;;;;;10.45;4.53;;;;;;;;;;4644229;30;20484;-91
2023/12/17 02:20:21;;;;;;;9.30;4.50;;;;;;;;;;4653645;30;20049;-92
2023/12/17 02:22:51;;;;;;;6.88;5.03;;;;;;;;;;4657766;30;20058;-92
2023/12/17 02:25:17;;;;;;;8.75;5.15;;;;;;;;;;4639386;30;20054;-90
2023/12/17 02:27:43;;;;;;;6.22;4.35;;;;;;;;;;4667148;30;20064;-90
2023/12/17 02:30:10;;;;;;;8.40;4.80;;;;;;;;;;4661502;30;20057;-90
2023/12/17 02:32:36;;;;;;;7.38;5.07;;;;;;;;;;4651765;30;20049;-91
2023/12/17 02:35:02;;;;;;;7.63;4.60;;;;;;;;;;4662318;30;20054;-91
2023/12/17 02:37:28;;;;;;;10.15;5.53;;;;;;;;;;4658094;30;20071;-92
2023/12/17 02:39:54;;;;;;;8.40;5.20;;;;;;;;;;4649332;30;20060;-90
2023/12/17 02:42:21;;;;;;;12.70;4.88;;;;;;;;;;4649965;30;20058;-90
2023/12/17 02:44:48;;;;;;;10.13;4.82;;;;;;;;;;4668927;30;20064;-91
2023/12/17 02:47:14;;;;;;;9.15;4.93;;;;;;;;;;4646989;30;20509;-92
2023/12/17 02:49:41;;;;;;;8.23;4.55;;;;;;;;;;4651113;30;20066;-91
2023/12/17 02:52:07;;;;;;;6.43;4.40;;;;;;;;;;4652784;30;20072;-91
2023/12/17 02:54:33;;;;;;;9.15;5.22;;;;;;;;;;4667712;30;21136;-91
2023/12/17 02:56:59;;;;;;;12.88;5.55;;;;;;;;;;4643356;30;20152;-91
2023/12/17 02:59:25;;;;;;;9.70;5.60;;;;;;;;;;4665476;30;20107;-91
2023/12/17 03:01:51;;;;;;;9.80;4.68;;;;;;;;;;4657993;30;20054;-91
2023/12/17 03:04:17;;;;;;;11.40;5.72;;;;;;;;;;4664367;30;20049;-91
2023/12/17 03:06:43;;;;;;;7.68;5.25;;;;;;;;;;4652936;30;20560;-91
2023/12/17 03:09:10;;;;;;;11.30;6.15;;;;;;;;;;4651973;30;20144;-91
2023/12/17 03:11:37;;;;;;;10.05;5.95;;;;;;;;;;4663759;30;20062;-91
2023/12/17 03:14:03;;;;;;;10.80;6.43;;;;;;;;;;4665864;30;20057;-91
2023/12/17 03:16:29;;;;;;;7.65;4.85;;;;;;;;;;4667357;30;20050;-91
2023/12/17 03:18:55;;;;;;;9.40;5.90;;;;;;;;;;4637000;30;20056;-92
2023/12/17 03:21:23;;;;;;;13.60;6.32;;;;;;;;;;4642837;30;20045;-91
2023/12/17 03:23:55;;;;;;;10.95;5.45;;;;;;;;;;4648714;30;20559;-91
2023/12/17 03:26:21;;;;;;;10.35;6.22;;;;;;;;;;4653761;30;20057;-91
2023/12/17 03:28:47;;;;;;;13.48;6.13;;;;;;;;;;4652221;30;20071;-91
2023/12/17 03:31:14;;;;;;;11.80;6.30;;;;;;;;;;4648248;30;20112;-91
2023/12/17 03:33:43;;;;;;;8.98;5.70;;;;;;;;;;4664266;30;20042;-92
2023/12/17 03:36:13;;;;;;;14.68;5.82;;;;;;;;;;4642410;30;21640;-92
2023/12/17 03:38:39;;;;;;;9.75;5.38;;;;;;;;;;4654942;30;20052;-91
2023/12/17 03:41:05;;;;;;;10.35;6.47;;;;;;;;;;4649728;30;20084;-91
2023/12/17 03:43:31;;;;;;;11.35;5.90;;;;;;;;;;4667947;30;20396;-92
2023/12/17 03:45:57;;;;;;;15.32;5.93;;;;;;;;;;4631186;30;20046;-91
2023/12/17 03:48:23;;;;;;;9.77;5.57;;;;;;;;;;4665534;30;20050;-90
2023/12/17 03:50:52;;;;;;;8.55;5.35;;;;;;;;;;4650258;30;20952;-91
2023/12/17 03:53:18;;;;;;;8.93;5.22;;;;;;;;;;4650520;30;20046;-90
2023/12/17 03:55:44;;;;;;;11.88;5.20;;;;;;;;;;4669187;30;20196;-91
2023/12/17 03:58:10;;;;;;;10.75;5.82;;;;;;;;;;4648921;30;20149;-92
2023/12/17 04:00:36;;;;;;;11.63;5.78;;;;;;;;;;4646821;30;20054;-92
2023/12/17 04:03:02;;;;;;;8.77;4.55;;;;;;;;;;4647108;30;20046;-90
2023/12/17 04:05:29;;;;;;;12.15;6.00;;;;;;;;;;4644913;30;20116;-90
2023/12/17 04:07:55;;;;;;;7.68;5.38;;;;;;;;;;4629413;30;20081;-92
2023/12/17 04:10:21;;;;;;;10.50;6.07;;;;;;;;;;4667137;30;20456;-91
2023/12/17 04:12:47;;;;;;;9.73;5.88;;;;;;;;;;4667116;30;20527;-91
2023/12/17 04:15:15;;;;;;;15.13;6.50;;;;;;;;;;4637404;30;20069;-90
2023/12/17 04:17:41;;;;;;;11.77;6.97;;;;;;;;;;4643054;30;20105;-91
2023/12/17 04:20:07;;;;;;;11.30;6.32;;;;;;;;;;4645662;30;20293;-91
2023/12/17 04:22:33;;;;;;;14.65;6.88;;;;;;;;;;4656951;30;20500;-92
2023/12/17 04:24:59;;;;;;;11.13;6.93;;;;;;;;;;4647352;30;20058;-90
2023/12/17 04:27:25;;;;;;;14.60;6.80;;;;;;;;;;4666600;30;20046;-91
2023/12/17 04:29:54;;;;;;;10.98;6.55;;;;;;;;;;4651736;30;20112;-91
2023/12/17 04:32:21;;;;;;;11.82;6.88;;;;;;;;;;4663233;30;20136;-91
2023/12/17 04:34:47;;;;;;;14.13;6.30;;;;;;;;;;4671459;30;20050;-91
2023/12/17 04:37:13;;;;;;;11.13;6.28;;;;;;;;;;4656730;30;20056;-92
2023/12/17 04:39:39;;;;;;;9.70;6.28;;;;;;;;;;4657909;30;20113;-91
2023/12/17 04:42:06;;;;;;;9.43;6.28;;;;;;;;;;4677214;30;20049;-92
2023/12/17 04:44:32;;;;;;;10.23;6.38;;;;;;;;;;4673385;30;20157;-91
2023/12/17 04:46:58;;;;;;;13.82;6.63;;;;;;;;;;4668068;30;20412;-91
2023/12/17 04:49:24;;;;;;;10.75;5.78;;;;;;;;;;4662106;30;20579;-92
2023/12/17 04:51:50;;;;;;;10.35;6.18;;;;;;;;;;4665950;30;20060;-91
2023/12/17 04:54:16;;;;;;;10.65;5.47;;;;;;;;;;4656171;30;20069;-91
2023/12/17 04:56:42;;;;;;;9.98;6.22;;;;;;;;;;4656742;30;20057;-90
2023/12/17 04:59:08;;;;;;;11.20;5.78;;;;;;;;;;4646560;30;21035;-91
2023/12/17 05:01:34;;;;;;;9.07;5.63;;;;;;;;;;4664397;30;20050;-91
2023/12/17 05:04:00;;;;;;;10.00;5.57;;;;;;;;;;4648082;30;20421;-91
2023/12/17 05:06:26;;;;;;;8.40;5.43;;;;;;;;;;4665766;30;20400;-91
2023/12/17 05:08:52;;;;;;;9.20;5.82;;;;;;;;;;4645195;30;20161;-91
2023/12/17 05:11:18;;;;;;;7.43;5.40;;;;;;;;;;4652314;30;20408;-91
2023/12/17 05:13:44;;;;;;;11.32;5.45;;;;;;;;;;4647531;30;20050;-90
2023/12/17 05:16:10;;;;;;;9.25;5.28;;;;;;;;;;4665682;30;20058;-90
2023/12/17 05:18:36;;;;;;;8.70;5.22;;;;;;;;;;4670911;30;20045;-90
2023/12/17 05:21:02;;;;;;;8.60;4.53;;;;;;;;;;4649023;30;20584;-91
2023/12/17 05:23:29;;;;;;;9.05;5.20;;;;;;;;;;4654935;30;20070;-90
2023/12/17 05:25:55;;;;;;;8.93;5.53;;;;;;;;;;4653947;30;20038;-90
2023/12/17 05:28:21;;;;;;;6.53;5.35;;;;;;;;;;4664549;30;20077;-90
2023/12/17 05:30:47;;;;;;;9.00;5.43;;;;;;;;;;4662974;30;20200;-91
2023/12/17 05:33:13;;;;;;;11.13;4.88;;;;;;;;;;4651844;30;20050;-91
2023/12/17 05:35:39;;;;;;;10.43;4.70;;;;;;;;;;4667009;30;20049;-90
2023/12/17 05:38:05;;;;;;;10.55;5.95;;;;;;;;;;4664376;30;20132;-91
2023/12/17 05:40:31;;;;;;;9.13;5.40;;;;;;;;;;4647767;30;20069;-90
2023/12/17 05:42:57;;;;;;;8.30;5.65;;;;;;;;;;4647822;30;20093;-90
2023/12/17 05:45:23;;;;;;;9.20;5.88;;;;;;;;;;4635398;30;20050;-91
2023/12/17 05:47:49;;;;;;;7.35;5.75;;;;;;;;;;4632563;30;20050;-91
2023/12/17 05:50:15;;;;;;;9.30;5.57;;;;;;;;;;4652514;30;20504;-91
2023/12/17 05:52:41;;;;;;;10.48;5.60;;;;;;;;;;4657129;30;20462;-90
2023/12/17 05:55:07;;;;;;;9.45;6.35;;;;;;;;;;4649178;30;21151;-91
2023/12/17 05:57:34;;;;;;;7.10;5.97;;;;;;;;;;4664189;30;20132;-90
2023/12/17 06:00:00;;;;;;;8.65;6.47;;;;;;;;;;4631606;30;20058;-91
2023/12/17 06:02:26;;;;;;;9.00;5.72;;;;;;;;;;4657052;30;20136;-90
2023/12/17 06:04:52;;;;;;;9.32;6.57;;;;;;;;;;4664651;30;20060;-90
2023/12/17 06:07:18;;;;;;;10.75;6.10;;;;;;;;;;4670377;30;20053;-91
2023/12/17 06:09:44;;;;;;;7.35;6.13;;;;;;;;;;4671505;30;20046;-91
2023/12/17 06:12:10;;;;;;;10.05;5.72;;;;;;;;;;4653509;30;20058;-90
2023/12/17 06:14:36;;;;;;;9.43;5.95;;;;;;;;;;4670251;30;20042;-91
2023/12/17 06:17:02;;;;;;;7.65;5.50;;;;;;;;;;4633852;30;20119;-91
2023/12/17 06:19:31;;;;;;;9.63;4.90;;;;;;;;;;4651353;30;20143;-91
2023/12/17 06:21:59;;;;;;;5.90;4.65;;;;;;;;;;4660713;30;20070;-91
2023/12/17 06:24:25;;;;;;;9.27;4.80;;;;;;;;;;4657176;30;20105;-91
2023/12/17 06:26:53;;;;;;;6.50;5.10;;;;;;;;;;4652406;30;20038;-91
2023/12/17 06:29:19;;;;;;;8.25;5.07;;;;;;;;;;4661161;30;20058;-90
2023/12/17 06:31:45;;;;;;;8.73;5.20;;;;;;;;;;4658221;30;20065;-92
2023/12/17 06:34:11;;;;;;;8.18;5.25;;;;;;;;;;4661809;30;20050;-91
2023/12/17 06:36:37;;;;;;;8.30;5.28;;;;;;;;;;4652949;30;20057;-91
2023/12/17 06:39:08;;;;;;;8.95;5.18;;;;;;;;;;4655250;30;20136;-91
2023/12/17 06:41:34;;;;;;;6.97;4.50;;;;;;;;;;4660258;30;20508;-90
2023/12/17 06:44:00;;;;;;;8.75;5.07;;;;;;;;;;4638058;30;20077;-91
2023/12/17 06:46:26;;;;;;;9.57;4.82;;;;;;;;;;4656978;30;20089;-91
2023/12/17 06:48:52;;;;;;;8.70;5.05;;;;;;;;;;4644180;30;20052;-91
2023/12/17 06:51:19;;;;;;;9.00;4.90;;;;;;;;;;4679089;30;20041;-91
2023/12/17 06:53:45;;;;;;;7.38;4.75;;;;;;;;;;4639386;30;20049;-91
2023/12/17 06:56:11;;;;;;;6.20;5.20;;;;;;;;;;4648523;30;20173;-91
2023/12/17 06:58:37;;;;;;;8.52;6.15;;;;;;;;;;4636627;30;20047;-91
2023/12/17 07:01:03;;;;;;;8.48;4.97;;;;;;;;;;4633510;30;20058;-92
2023/12/17 07:03:29;;;;;;;8.48;5.90;;;;;;;;;;4649728;30;20498;-92
2023/12/17 07:05:55;;;;;;;11.68;5.07;;;;;;;;;;4650744;30;20140;-91
2023/12/17 07:08:21;;;;;;;7.85;6.15;;;;;;;;;;4649429;30;20054;-92
2023/12/17 07:10:47;;;;;;;9.63;5.47;;;;;;;;;;4639599;30;20054;-92
2023/12/17 07:13:13;;;;;;;6.40;5.68;;;;;;;;;;4636449;30;20441;-92
2023/12/17 07:15:39;;;;;;;10.82;6.55;;;;;;;;;;4631796;30;20145;-92
2023/12/17 07:18:05;;;;;;;7.90;5.65;;;;;;;;;;4631853;30;20057;-93
2023/12/17 07:20:31;;;;;;;8.98;6.22;;;;;;;;;;4653289;30;20061;-92
2023/12/17 07:22:57;;;;;;;7.50;5.97;;;;;;;;;;4644448;30;20061;-93
2023/12/17 07:25:26;;;;;;;9.85;6.07;;;;;;;;;;4627870;30;20054;-92
2023/12/17 07:27:53;;;;;;;11.25;6.32;;;;;;;;;;4634357;30;20061;-92
2023/12/17 07:30:19;;;;;;;11.00;7.05;;;;;;;;;;4660265;30;20045;-92
2023/12/17 07:32:45;;;;;;;11.77;6.72;;;;;;;;;;4647113;30;20207;-91
2023/12/17 07:35:11;;;;;;;7.47;6.30;;;;;;;;;;4663010;30;20519;-93
2023/12/17 07:37:37;;;;;;;9.38;7.07;;;;;;;;;;4638969;30;20053;-93
2023/12/17 07:40:03;;;;;;;10.55;7.10;;;;;;;;;;4661044;30;22457;-92
2023/12/17 07:42:29;;;;;;;13.00;7.47;;;;;;;;;;4648366;30;20132;-92
2023/12/17 07:44:55;;;;;;;9.60;6.88;;;;;;;;;;4649435;30;20731;-96
2023/12/17 07:47:21;;;;;;;15.45;7.40;;;;;;;;;;4656430;30;20061;-95
2023/12/17 07:49:47;;;;;;;10.77;7.80;;;;;;;;;;4644380;30;20389;-94
2023/12/17 07:52:16;;;;;;;9.95;6.70;;;;;;;;;;4656012;30;20058;-96
2023/12/17 07:54:42;;;;;;;12.20;7.30;;;;;;;;;;4658464;30;20173;-96
2023/12/17 07:57:09;;;;;;;16.65;8.77;;;;;;;;;;4653426;30;20379;-96
2023/12/17 07:59:35;;;;;;;11.75;7.35;;;;;;;;;;4632446;30;20054;-95
2023/12/17 08:02:01;;;;;;;11.48;7.13;;;;;;;;;;4639001;30;20054;-95
2023/12/17 08:04:27;;;;;;;14.10;8.07;;;;;;;;;;4640678;30;20050;-95
2023/12/17 08:06:53;;;;;;;10.00;8.25;;;;;;;;;;4639667;30;20056;-96
2023/12/17 08:09:19;;;;;;;11.38;8.07;;;;;;;;;;4646645;30;20061;-96
2023/12/17 08:11:45;;;;;;;13.43;8.05;;;;;;;;;;4653839;30;20042;-96
2023/12/17 08:14:12;;;;;;;16.88;9.07;;;;;;;;;;4635816;30;20054;-96
2023/12/17 08:16:38;;;;;;;17.00;8.75;;;;;;;;;;4652107;30;20131;-96
2023/12/17 08:19:06;;;;;;;15.15;9.25;;;;;;;;;;4651361;30;20188;-96
2023/12/17 08:21:33;;;;;;;12.93;9.10;;;;;;;;;;4644302;30;20053;-96
2023/12/17 08:23:59;;;;;;;17.02;9.98;;;;;;;;;;4631028;30;21284;-96
2023/12/17 08:26:25;;;;;;;12.88;10.05;;;;;;;;;;4652938;30;20069;-95
2023/12/17 08:28:51;;;;;;;18.65;11.02;;;;;;;;;;4671000;30;20054;-96
2023/12/17 08:31:18;;;;;;;15.10;9.80;;;;;;;;;;4650165;30;20077;-96
2023/12/17 08:33:44;;;;;;;14.70;10.70;;;;;;;;;;4638272;30;20128;-95
2023/12/17 08:36:11;;;;;;;18.70;11.85;;;;;;;;;;4652096;30;20081;-96
2023/12/17 08:38:37;;;;;;;14.40;9.88;;;;;;;;;;4654716;30;20061;-95
2023/12/17 08:41:03;;;;;;;16.45;10.23;;;;;;;;;;4639416;30;20101;-96
2023/12/17 08:43:30;;;;;;;16.65;10.48;;;;;;;;;;4639477;30;20042;-96
2023/12/17 08:45:56;;;;;;;18.75;10.77;;;;;;;;;;4637242;30;20561;-94
2023/12/17 08:48:22;;;;;;;17.92;11.15;;;;;;;;;;4656071;30;20050;-96
2023/12/17 08:50:51;;;;;;;15.45;9.95;;;;;;;;;;4640117;30;20050;-96
2023/12/17 08:53:19;;;;;;;17.35;10.75;;;;;;;;;;4650272;30;20050;-95
2023/12/17 08:55:45;;;;;;;16.75;10.38;;;;;;;;;;4642075;30;20057;-96
2023/12/17 08:58:11;;;;;;;15.63;9.32;;;;;;;;;;4646191;30;20058;-94
2023/12/17 09:00:38;;;;;;;17.45;9.85;;;;;;;;;;4655468;30;20057;-94
2023/12/17 09:03:04;;;;;;;17.65;10.70;;;;;;;;;;4651365;30;20049;-95
2023/12/17 09:05:45;;;;;;;12.73;8.45;;;;;;;;;;4633733;30;20054;-96
2023/12/17 09:08:12;;;;;;;12.88;8.52;;;;;;;;;;4632872;30;20045;-96
2023/12/17 09:10:38;;;;;;;14.27;9.20;;;;;;;;;;4643023;30;20046;-96
2023/12/17 09:13:09;;;;;;;19.95;9.02;;;;;;;;;;4649166;30;20061;-95
2023/12/17 09:19:03;;;;;;;17.02;8.57;;;;;;;;;;4621888;30;20915;-96
2023/12/17 09:21:29;;;;;;;16.10;8.90;;;;;;;;;;4640130;30;20053;-95
2023/12/17 09:24:04;;;;;;;15.73;8.02;;;;;;;;;;4636903;30;20060;-96
2023/12/17 09:26:41;;;;;;;16.63;8.23;;;;;;;;;;4644541;30;20042;-95
2023/12/17 09:29:10;;;;;;;15.57;7.88;;;;;;;;;;4649340;30;20081;-94
2023/12/17 09:31:36;;;;;;;17.40;8.13;;;;;;;;;;4639682;30;20042;-95
2023/12/17 09:34:02;;;;;;;12.77;7.25;;;;;;;;;;4634918;30;20647;-96
2023/12/17 09:36:28;;;;;;;14.93;7.85;;;;;;;;;;4639102;30;20050;-96
2023/12/17 09:38:55;;;;;;;14.48;7.85;;;;;;;;;;4643550;30;20092;-95
2023/12/17 09:41:21;;;;;;;16.85;8.50;;;;;;;;;;4641943;30;20421;-95
2023/12/17 09:43:47;;;;;;;15.13;8.18;;;;;;;;;;4643419;30;20046;-95
2023/12/17 09:46:16;;;;;;;17.83;8.52;;;;;;;;;;4642652;30;20046;-96
2023/12/17 09:48:42;;;;;;;18.02;9.95;;;;;;;;;;4665929;30;20125;-96
2023/12/17 09:51:10;;;;;;;19.40;9.48;;;;;;;;;;4651111;30;20734;-96
2023/12/17 09:53:36;;;;;;;19.27;9.65;;;;;;;;;;4645122;30;20054;-96
2023/12/17 09:56:02;;;;;;;19.35;9.18;;;;;;;;;;4662107;30;20050;-95
2023/12/17 09:58:28;;;;;;;15.15;9.05;;;;;;;;;;4652874;30;20042;-96
2023/12/17 10:00:54;;;;;;;18.77;9.85;;;;;;;;;;4647601;30;20048;-96
2023/12/17 10:03:24;;;;;;;18.42;9.65;;;;;;;;;;4647842;30;20085;-95
2023/12/17 10:05:51;;;;;;;22.38;10.63;;;;;;;;;;4643342;30;20042;-95
2023/12/17 10:08:17;;;;;;;20.42;11.02;;;;;;;;;;4649978;30;20052;-95
2023/12/17 10:10:43;;;;;;;24.67;11.95;;;;;;;;;;4672698;30;20049;-96
2023/12/17 10:13:09;;;;;;;25.45;11.73;;;;;;;;;;4644777;30;22289;-96
2023/12/17 10:15:37;;;;;;;21.75;11.85;;;;;;;;;;4661114;30;20061;-95
2023/12/17 10:18:04;;;;;;;22.05;11.38;;;;;;;;;;4654089;30;20061;-96
2023/12/17 10:20:32;;;;;;;25.30;11.65;;;;;;;;;;4661006;30;20049;-96
2023/12/17 10:23:03;;;;;;;20.23;11.35;;;;;;;;;;4643958;30;20054;-95
2023/12/17 10:25:29;;;;;;;21.13;11.40;;;;;;;;;;4662740;30;20396;-96
2023/12/17 10:27:57;;;;;;;21.40;12.05;;;;;;;;;;4649932;30;20124;-96
2023/12/17 10:30:26;;;;;;;28.80;11.98;;;;;;;;;;4658180;30;20727;-96
2023/12/17 10:32:52;;;;;;;21.52;10.25;;;;;;;;;;4652448;30;20045;-96
2023/12/17 10:35:21;;;;;;;20.33;11.30;;;;;;;;;;4650069;30;20045;-96
2023/12/17 10:37:49;;;;;;;21.25;11.07;;;;;;;;;;4647931;30;20121;-96
2023/12/17 10:40:15;;;;;;;;;;;;;;;;;;4666811;30;20050;-96
2023/12/17 10:42:41;;;;;;;24.08;10.98;;;;;;;;;;4671760;30;20001;-96
2023/12/17 10:45:11;;;;;;;21.45;11.27;;;;;;;;;;4655896;30;20046;-96
2023/12/17 10:47:38;;;;;;;22.63;12.13;;;;;;;;;;4661831;30;20053;-96
2023/12/17 10:50:05;;;;;;;19.90;11.02;;;;;;;;;;4642886;30;20050;-96
2023/12/17 10:52:31;;;;;;;15.95;9.75;;;;;;;;;;4650300;30;20050;-96
2023/12/17 10:54:57;;;;;;;15.93;9.05;;;;;;;;;;4647510;30;20050;-96
2023/12/17 10:57:24;;;;;;;18.63;10.02;;;;;;;;;;4649814;30;20054;-96
2023/12/17 10:59:50;;;;;;;17.60;9.75;;;;;;;;;;4679325;30;20081;-96
2023/12/17 11:02:18;;;;;;;19.70;9.30;;;;;;;;;;4666195;30;20053;-95
2023/12/17 11:04:48;;;;;;;14.68;9.55;;;;;;;;;;4658468;30;20046;-96
2023/12/17 11:07:20;;;;;;;13.93;8.48;;;;;;;;;;4669404;30;20108;-96
2023/12/17 11:09:50;;;;;;;14.82;9.55;;;;;;;;;;4679937;30;20182;-96
2023/12/17 11:12:21;;;;;;;17.52;8.98;;;;;;;;;;4663390;30;20074;-96
2023/12/17 11:14:50;;;;;;;13.60;8.02;;;;;;;;;;4670180;30;20054;-96
2023/12/17 11:17:17;;;;;;;14.00;8.02;;;;;;;;;;4656494;30;20077;-96
2023/12/17 11:19:56;;;;;;;12.77;7.93;;;;;;;;;;4650457;30;20078;-96
2023/12/17 11:22:22;;;;;;;12.52;8.60;;;;;;;;;;4657356;30;20155;-96
2023/12/17 11:24:53;;;;;;;14.40;8.23;;;;;;;;;;4636218;30;20857;-95
2023/12/17 11:27:26;;;;;;;14.70;8.20;;;;;;;;;;4660192;30;20053;-96
2023/12/17 11:29:55;;;;;;;15.32;7.63;;;;;;;;;;4671773;30;20099;-96
2023/12/17 11:32:30;;;;;;;13.52;7.47;;;;;;;;;;4666434;30;20586;-95
2023/12/17 11:35:01;;;;;;;14.35;8.15;;;;;;;;;;4653307;30;20059;-96
2023/12/17 11:37:48;;;;;;;;;;;;;;;;;;;;;
2023/12/17 11:40:21;;;;;;;11.55;7.85;;;;;;;;;;4676758;30;20068;-96
2023/12/17 11:43:04;;;;;;;12.45;7.72;;;;;;;;;;4658925;30;20271;-96
2023/12/17 11:45:44;;;;;;;13.18;7.93;;;;;;;;;;4646272;30;20064;-96
2023/12/17 11:48:19;;;;;;;13.27;7.72;;;;;;;;;;4656191;30;20061;-95
2023/12/17 11:50:56;;;;;;;13.10;8.40;;;;;;;;;;4660866;30;20129;-96
2023/12/17 11:53:31;;;;;;;16.02;8.75;;;;;;;;;;4656187;30;20093;-96
2023/12/17 11:56:00;;;;;;;14.95;9.35;;;;;;;;;;4651217;30;20136;-96
2023/12/17 11:58:29;;;;;;;13.65;8.95;;;;;;;;;;4671085;30;20517;-95
2023/12/17 12:01:09;;;;;;;13.50;8.35;;;;;;;;;;4671068;30;20397;-96
2023/12/17 12:03:41;;;;;;;15.65;8.95;;;;;;;;;;4659169;30;20045;-96
2023/12/17 12:06:10;;;;;;;13.25;8.70;;;;;;;;;;4671191;30;20058;-95
2023/12/17 12:08:42;;;;;;;17.52;8.98;;;;;;;;;;4650351;30;20042;-95
2023/12/17 12:11:21;;;;;;;13.63;8.60;;;;;;;;;;4656725;30;20069;-96
2023/12/17 12:13:57;;;;;;;16.30;9.52;;;;;;;;;;4661013;30;20053;-96
2023/12/17 12:19:42;;;;;;;17.40;9.85;;;;;;;;;;4673731;30;20046;-95
2023/12/17 12:22:14;;;;;;;23.08;10.48;;;;;;;;;;4653010;30;20113;-96
2023/12/17 12:24:44;;;;;;;22.17;11.00;;;;;;;;;;4654508;30;20058;-95
2023/12/17 12:27:10;;;;;;;22.10;11.35;;;;;;;;;;4648544;30;20047;-95
2023/12/17 12:29:39;;;;;;;18.05;11.07;;;;;;;;;;4646639;30;20046;-95
2023/12/17 12:32:34;;;;;;;19.65;10.43;;;;;;;;;;4659901;30;21491;-96
2023/12/17 12:35:29;;;;;;;23.10;11.17;;;;;;;;;;4677578;30;20216;-96
2023/12/17 12:37:58;;;;;;;22.95;12.30;;;;;;;;;;4645871;30;20065;-95
2023/12/17 12:40:34;;;;;;;23.60;12.27;;;;;;;;;;4650205;30;20061;-95
2023/12/17 12:43:02;;;;;;;20.33;11.07;;;;;;;;;;4652169;30;20145;-96
2023/12/17 12:45:47;;;;;;;23.15;11.95;;;;;;;;;;4664344;30;20049;-96
2023/12/17 12:48:39;;;;;;;23.85;12.18;;;;;;;;;;4672960;30;20428;-96
2023/12/17 12:51:08;;;;;;;22.15;11.50;;;;;;;;;;4663362;30;20058;-95
2023/12/17 12:56:29;;;;;;;24.42;12.25;;;;;;;;;;4663718;30;20450;-95
2023/12/17 12:58:58;;;;;;;22.35;11.27;;;;;;;;;;4644555;30;20407;-96
2023/12/17 13:01:25;;;;;;;20.92;11.15;;;;;;;;;;4649513;30;20208;-95
2023/12/17 13:03:55;;;;;;;21.85;10.35;;;;;;;;;;4657816;30;20390;-96
2023/12/17 13:06:21;;;;;;;19.73;11.23;;;;;;;;;;4679858;30;20041;-96
2023/12/17 13:08:56;;;;;;;20.02;10.88;;;;;;;;;;4648972;30;20053;-96
2023/12/17 13:11:22;;;;;;;19.67;10.57;;;;;;;;;;4648793;30;20062;-96
2023/12/17 13:14:00;;;;;;;21.25;10.88;;;;;;;;;;4669497;30;20054;-95
2023/12/17 13:16:29;;;;;;;21.33;11.23;;;;;;;;;;4649458;30;20386;-96
2023/12/17 13:18:59;;;;;;;23.33;11.65;;;;;;;;;;4656501;30;20043;-96
2023/12/17 13:21:28;;;;;;;21.15;11.23;;;;;;;;;;4644674;30;20093;-96
2023/12/17 13:23:54;;;;;;;17.10;10.25;;;;;;;;;;4660447;30;20049;-96
2023/12/17 13:26:20;;;;;;;17.27;9.63;;;;;;;;;;4660541;30;20049;-96
2023/12/17 13:28:46;;;;;;;20.33;10.95;;;;;;;;;;4657284;30;20049;-96
2023/12/17 13:31:14;;;;;;;19.38;10.48;;;;;;;;;;4643489;30;20054;-96
2023/12/17 13:33:40;;;;;;;19.90;10.57;;;;;;;;;;4659855;30;20045;-96
2023/12/17 13:36:06;;;;;;;17.83;9.95;;;;;;;;;;4640420;30;20057;-95
2023/12/17 13:38:32;;;;;;;18.98;10.23;;;;;;;;;;4649870;30;20125;-95
2023/12/17 13:40:58;;;;;;;17.75;10.30;;;;;;;;;;4645442;30;20042;-96
2023/12/17 13:43:24;;;;;;;19.23;10.35;;;;;;;;;;4669205;30;20163;-96
2023/12/17 13:45:50;;;;;;;17.77;10.30;;;;;;;;;;4643044;30;20050;-95
2023/12/17 13:48:16;;;;;;;21.55;10.40;;;;;;;;;;4647821;30;20068;-96
2023/12/17 13:50:46;;;;;;;18.73;9.82;;;;;;;;;;4667065;30;20057;-96
2023/12/17 13:53:14;;;;;;;19.35;10.88;;;;;;;;;;4643651;30;20050;-96
2023/12/17 13:55:40;;;;;;;;;;;;;;;;;;4647396;30;20054;-96
2023/12/17 13:58:06;;;;;;;23.17;11.25;;;;;;;;;;4647863;30;19935;-94
2023/12/17 14:00:35;;;;;;;20.08;10.73;;;;;;;;;;4642441;30;20073;-96
2023/12/17 14:03:12;;;;;;;18.92;11.00;;;;;;;;;;4660430;30;20064;-96
2023/12/17 14:05:39;;;;;;;18.65;10.43;;;;;;;;;;4681067;30;20143;-96
2023/12/17 14:08:05;;;;;;;20.75;11.40;;;;;;;;;;4658423;30;20050;-96
2023/12/17 14:10:31;;;;;;;23.95;11.73;;;;;;;;;;4653582;30;20041;-96
2023/12/17 14:13:02;;;;;;;21.65;11.02;;;;;;;;;;4655716;30;20054;-96
2023/12/17 14:15:29;;;;;;;23.35;11.32;;;;;;;;;;4663433;30;20050;-96
2023/12/17 14:17:57;;;;;;;21.23;11.52;;;;;;;;;;4650081;30;20053;-96
2023/12/17 14:20:23;;;;;;;19.58;10.82;;;;;;;;;;4649112;30;20057;-96
2023/12/17 14:22:56;;;;;;;22.65;11.90;;;;;;;;;;4651085;30;20062;-96
2023/12/17 14:25:24;;;;;;;23.55;12.50;;;;;;;;;;4664351;30;20041;-96
2023/12/17 14:27:50;;;;;;;23.13;10.65;;;;;;;;;;4661003;30;20446;-96
2023/12/17 14:30:16;;;;;;;22.08;11.18;;;;;;;;;;4653933;30;20457;-96
2023/12/17 14:32:44;;;;;;;21.58;11.02;;;;;;;;;;4648396;30;20046;-96
2023/12/17 14:35:11;;;;;;;27.25;12.38;;;;;;;;;;4662977;30;20102;-96
2023/12/17 14:37:40;;;;;;;20.58;10.20;;;;;;;;;;4649983;30;20045;-96
2023/12/17 14:40:08;;;;;;;20.50;10.70;;;;;;;;;;4660527;30;20126;-96
2023/12/17 14:42:35;;;;;;;20.55;10.90;;;;;;;;;;4659294;30;20047;-96
2023/12/17 14:45:01;;;;;;;22.42;10.07;;;;;;;;;;4646996;30;20058;-96